| time (UTC) | temp F | wind direction | speed MPH | gust MPH | rain 1hr in | rain 24hr in | rain mn in | humidity % | barometer mb |
| 20260902185122 | 68 | 146 | 3.0 | 14.0 | 0.00 | 0.00 | 0.00 | 58 | 1003.7 |
| 20260902184122 | 68 | 142 | 6.0 | 21.0 | 0.00 | 0.00 | 0.00 | 59 | 1003.8 |
| 20260902183122 | 68 | 151 | 8.0 | 26.0 | 0.00 | 0.00 | 0.00 | 59 | 1004.0 |
| 20260902182122 | 68 | 140 | 9.0 | 24.0 | 0.00 | 0.00 | 0.00 | 59 | 1004.1 |
| 20260902181123 | 68 | 144 | 7.0 | 23.0 | 0.00 | 0.00 | 0.00 | 59 | 1004.2 |
| 20260902180124 | 67 | 139 | 8.0 | 24.0 | 0.00 | 0.00 | 0.00 | 60 | 1004.2 |
| 20260902175124 | 67 | 237 | 3.0 | 11.0 | 0.00 | 0.00 | 0.00 | 63 | 1004.3 |
| 20260902174122 | 67 | 161 | 2.0 | 11.0 | 0.00 | 0.00 | 0.00 | 64 | 1004.4 |
| 20260902173143 | 66 | 158 | 5.0 | 16.0 | 0.00 | 0.00 | 0.00 | 65 | 1004.6 |
| 20260902172122 | 66 | 145 | 7.0 | 18.0 | 0.00 | 0.00 | 0.00 | 65 | 1004.7 |
| 20260902171122 | 66 | 136 | 8.0 | 23.0 | 0.00 | 0.00 | 0.00 | 66 | 1004.9 |
| 20260902170145 | 66 | 143 | 9.0 | 26.0 | 0.00 | 0.00 | 0.00 | 66 | 1004.6 |
| 20260902165124 | 65 | 154 | 6.0 | 19.0 | 0.00 | 0.00 | 0.00 | 68 | 1004.7 |
| 20260902164124 | 65 | 134 | 7.0 | 16.0 | 0.00 | 0.00 | 0.00 | 73 | 1004.7 |
| 20260902163122 | 65 | 117 | 5.0 | 16.0 | 0.00 | 0.00 | 0.00 | 72 | 1004.7 |
| 20260902162122 | 65 | 128 | 5.0 | 16.0 | 0.00 | 0.00 | 0.00 | 73 | 1004.7 |
| 20260902161122 | 64 | 130 | 6.0 | 16.0 | 0.00 | 0.00 | 0.00 | 73 | 1004.7 |
| 20260902160122 | 64 | 117 | 5.0 | 14.0 | 0.00 | 0.00 | 0.00 | 73 | 1004.8 |
| 20260902155143 | 64 | 117 | 4.0 | 16.0 | 0.00 | 0.00 | 0.00 | 74 | 1004.9 |
| 20260902154122 | 64 | 132 | 6.0 | 21.0 | 0.00 | 0.00 | 0.00 | 70 | 1005.1 |
| 20260902153122 | 64 | 140 | 5.0 | 16.0 | 0.00 | 0.00 | 0.00 | 71 | 1005.2 |
| 20260902152124 | 64 | 152 | 4.0 | 13.0 | 0.00 | 0.00 | 0.00 | 71 | 1005.1 |
| 20260902151124 | 64 | 141 | 6.0 | 21.0 | 0.00 | 0.00 | 0.00 | 71 | 1005.2 |
| 20260902150143 | 63 | 126 | 3.0 | 13.0 | 0.00 | 0.00 | 0.00 | 75 | 1005.2 |
| 20260902145143 | 64 | 123 | 3.0 | 14.0 | 0.00 | 0.00 | 0.00 | 75 | 1005.2 |
| 20260902144122 | 63 | 145 | 5.0 | 16.0 | 0.00 | 0.00 | 0.00 | 74 | 1005.4 |
| 20260902143123 | 62 | 132 | 5.0 | 16.0 | 0.00 | 0.00 | 0.00 | 76 | 1005.4 |
| 20260902142123 | 62 | 113 | 3.0 | 11.0 | 0.00 | 0.00 | 0.00 | 81 | 1005.4 |
| 20260902141123 | 62 | 108 | 2.0 | 5.0 | 0.00 | 0.00 | 0.00 | 82 | 1005.5 |
| 20260902140124 | 62 | 122 | 3.0 | 8.0 | 0.00 | 0.00 | 0.00 | 82 | 1005.6 |
| 20260902135143 | 62 | 116 | 2.0 | 5.0 | 0.00 | 0.00 | 0.00 | 79 | 1005.6 |
| 20260902134122 | 62 | 131 | 2.0 | 11.0 | 0.00 | 0.00 | 0.00 | 79 | 1005.7 |
| 20260902133122 | 61 | 130 | 4.0 | 11.0 | 0.00 | 0.00 | 0.00 | 82 | 1005.7 |
| 20260902132145 | 61 | 127 | 2.0 | 10.0 | 0.00 | 0.00 | 0.00 | 84 | 1005.5 |
| 20260902131122 | 61 | 126 | 3.0 | 11.0 | 0.00 | 0.00 | 0.00 | 85 | 1005.4 |
| 20260902130124 | 61 | 125 | 2.0 | 8.0 | 0.00 | 0.00 | 0.00 | 85 | 1005.5 |
| 20260902125122 | 61 | 123 | 3.0 | 8.0 | 0.00 | 0.00 | 0.00 | 85 | 1005.5 |
| 20260902124143 | 61 | 128 | 4.0 | 11.0 | 0.00 | 0.00 | 0.00 | 86 | 1005.6 |
| 20260902123124 | 61 | 123 | 4.0 | 10.0 | 0.00 | 0.00 | 0.00 | 86 | 1005.6 |
| 20260902122122 | 61 | 122 | 2.0 | 5.0 | 0.00 | 0.00 | 0.00 | 86 | 1005.7 |
| 20260902121122 | 61 | 127 | 2.0 | 6.0 | 0.00 | 0.00 | 0.00 | 86 | 1005.7 |
| 20260902120124 | 61 | 130 | 1.0 | 6.0 | 0.00 | 0.00 | 0.00 | 85 | 1005.8 |
| 20260902115143 | 61 | 124 | 2.0 | 6.0 | 0.00 | 0.00 | 0.00 | 84 | 1006.0 |
| 20260902114122 | 61 | 135 | 2.0 | 6.0 | 0.00 | 0.00 | 0.00 | 84 | 1006.0 |
| 20260902113122 | 61 | 138 | 2.0 | 5.0 | 0.00 | 0.00 | 0.00 | 84 | 1006.0 |
| 20260902112143 | 61 | 0 | 0.0 | 0.0 | 0.00 | 0.00 | 0.00 | 83 | 1006.1 |
| 20260902111144 | 62 | 0 | 0.0 | 0.0 | 0.00 | 0.00 | 0.00 | 83 | 1006.3 |
| 20260902110122 | 62 | 0 | 0.0 | 2.0 | 0.00 | 0.00 | 0.00 | 83 | 1006.4 |
| 20260902105122 | 62 | 124 | 0.0 | 3.0 | 0.00 | 0.00 | 0.00 | 82 | 1006.4 |
| 20260902104122 | 62 | 138 | 1.0 | 6.0 | 0.00 | 0.00 | 0.00 | 81 | 1006.6 |
| 20260902103124 | 62 | 117 | 1.0 | 6.0 | 0.00 | 0.00 | 0.00 | 81 | 1006.6 |
| 20260902102124 | 62 | 0 | 0.0 | 0.0 | 0.00 | 0.00 | 0.00 | 80 | 1006.7 |
| 20260902101122 | 62 | 128 | 1.0 | 8.0 | 0.00 | 0.00 | 0.00 | 80 | 1006.7 |
| 20260902100122 | 62 | 143 | 3.0 | 13.0 | 0.00 | 0.00 | 0.00 | 80 | 1006.8 |
| 20260902095144 | 62 | 149 | 3.0 | 14.0 | 0.00 | 0.00 | 0.00 | 80 | 1006.8 |
| 20260902094145 | 62 | 149 | 5.0 | 19.0 | 0.00 | 0.00 | 0.00 | 80 | 1006.9 |
| 20260902093122 | 62 | 147 | 5.0 | 21.0 | 0.00 | 0.00 | 0.00 | 81 | 1007.0 |
| 20260902092122 | 62 | 165 | 2.0 | 11.0 | 0.00 | 0.00 | 0.00 | 81 | 1007.1 |
| 20260902091124 | 62 | 161 | 2.0 | 11.0 | 0.00 | 0.00 | 0.00 | 82 | 1007.2 |
| 20260902090122 | 62 | 151 | 4.0 | 11.0 | 0.00 | 0.00 | 0.00 | 84 | 1007.2 |
| 20260902085122 | 61 | 126 | 3.0 | 11.0 | 0.00 | 0.00 | 0.00 | 88 | 1007.2 |
| 20260902084122 | 61 | 126 | 4.0 | 11.0 | 0.00 | 0.00 | 0.00 | 89 | 1007.2 |
| 20260902083123 | 61 | 128 | 6.0 | 14.0 | 0.00 | 0.00 | 0.00 | 89 | 1007.3 |
| 20260902082123 | 61 | 126 | 5.0 | 14.0 | 0.00 | 0.00 | 0.00 | 90 | 1007.2 |
| 20260902081123 | 61 | 126 | 5.0 | 13.0 | 0.00 | 0.00 | 0.00 | 90 | 1007.3 |
| 20260902080143 | 61 | 128 | 4.0 | 11.0 | 0.00 | 0.00 | 0.00 | 91 | 1007.2 |
| 20260902075143 | 61 | 127 | 4.0 | 13.0 | 0.00 | 0.00 | 0.00 | 91 | 1007.2 |
| 20260902074122 | 61 | 123 | 4.0 | 11.0 | 0.00 | 0.00 | 0.00 | 91 | 1007.2 |
| 20260902073122 | 61 | 123 | 3.0 | 11.0 | 0.00 | 0.00 | 0.00 | 91 | 1007.3 |
| 20260902072122 | 61 | 124 | 3.0 | 8.0 | 0.00 | 0.00 | 0.00 | 91 | 1007.3 |
| 20260902071122 | 61 | 125 | 3.0 | 10.0 | 0.00 | 0.00 | 0.00 | 91 | 1007.3 |
| 20260902070122 | 61 | 125 | 4.0 | 13.0 | 0.00 | 0.00 | 0.00 | 91 | 1007.3 |
| 20260902065124 | 61 | 120 | 2.0 | 6.0 | 0.00 | 0.00 | 0.00 | 91 | 1007.4 |
| 20260902064122 | 62 | 125 | 3.0 | 11.0 | 0.00 | 0.00 | 0.00 | 91 | 1007.5 |
| 20260902063122 | 62 | 125 | 4.0 | 13.0 | 0.00 | 0.00 | 0.00 | 89 | 1007.4 |
| 20260902062144 | 62 | 127 | 2.0 | 11.0 | 0.00 | 0.00 | 0.00 | 89 | 1007.6 |
| 20260902061146 | 62 | 121 | 3.0 | 8.0 | 0.00 | 0.00 | 0.00 | 89 | 1007.7 |
| 20260902060145 | 62 | 122 | 3.0 | 10.0 | 0.00 | 0.00 | 0.00 | 87 | 1007.7 |
| 20260902055122 | 62 | 124 | 4.0 | 11.0 | 0.00 | 0.00 | 0.00 | 86 | 1007.7 |
| 20260902054122 | 63 | 120 | 4.0 | 13.0 | 0.00 | 0.00 | 0.00 | 85 | 1007.7 |
| 20260902053122 | 64 | 138 | 4.0 | 13.0 | 0.00 | 0.00 | 0.00 | 82 | 1007.8 |
| 20260902052122 | 64 | 124 | 4.0 | 11.0 | 0.00 | 0.00 | 0.00 | 79 | 1007.9 |
| 20260902051124 | 64 | 113 | 3.0 | 13.0 | 0.00 | 0.00 | 0.00 | 77 | 1007.8 |
| 20260902050122 | 65 | 119 | 2.0 | 10.0 | 0.00 | 0.00 | 0.00 | 75 | 1007.8 |
| 20260902045143 | 65 | 117 | 2.0 | 11.0 | 0.00 | 0.00 | 0.00 | 72 | 1007.8 |
| 20260902044124 | 65 | 151 | 2.0 | 11.0 | 0.00 | 0.00 | 0.00 | 72 | 1007.8 |
| 20260902043124 | 65 | 166 | 1.0 | 13.0 | 0.00 | 0.00 | 0.00 | 72 | 1007.9 |
| 20260902042124 | 65 | 152 | 5.0 | 16.0 | 0.00 | 0.00 | 0.00 | 72 | 1007.9 |
| 20260902041122 | 66 | 148 | 3.0 | 11.0 | 0.00 | 0.00 | 0.00 | 71 | 1007.8 |
| 20260902040124 | 66 | 131 | 3.0 | 14.0 | 0.00 | 0.00 | 0.00 | 70 | 1007.8 |
| 20260902035124 | 66 | 139 | 2.0 | 13.0 | 0.00 | 0.00 | 0.00 | 69 | 1007.7 |
| 20260902034124 | 66 | 123 | 3.0 | 10.0 | 0.00 | 0.00 | 0.00 | 68 | 1007.6 |
| 20260902033123 | 66 | 133 | 2.0 | 8.0 | 0.00 | 0.00 | 0.00 | 66 | 1007.6 |
| 20260902032122 | 66 | 124 | 3.0 | 10.0 | 0.00 | 0.00 | 0.00 | 66 | 1007.6 |
| 20260902031122 | 67 | 123 | 3.0 | 14.0 | 0.00 | 0.00 | 0.00 | 64 | 1007.5 |
| 20260902030122 | 67 | 126 | 2.0 | 10.0 | 0.00 | 0.00 | 0.00 | 64 | 1007.6 |
| 20260902025145 | 67 | 144 | 1.0 | 11.0 | 0.00 | 0.00 | 0.00 | 64 | 1007.5 |
| 20260902024122 | 67 | 119 | 3.0 | 10.0 | 0.00 | 0.00 | 0.00 | 63 | 1007.6 |
| 20260902023122 | 67 | 126 | 4.0 | 14.0 | 0.00 | 0.00 | 0.00 | 63 | 1007.6 |
| 20260902022122 | 67 | 127 | 2.0 | 10.0 | 0.00 | 0.00 | 0.00 | 63 | 1007.5 |
| 20260902021122 | 67 | 125 | 5.0 | 21.0 | 0.00 | 0.00 | 0.00 | 64 | 1007.5 |
| 20260902020122 | 68 | 130 | 3.0 | 11.0 | 0.00 | 0.00 | 0.00 | 64 | 1007.6 |
| 20260902015143 | 68 | 131 | 3.0 | 10.0 | 0.00 | 0.00 | 0.00 | 64 | 1007.6 |
| 20260902014122 | 68 | 133 | 2.0 | 8.0 | 0.00 | 0.00 | 0.00 | 64 | 1007.7 |
| 20260902013124 | 68 | 154 | 3.0 | 10.0 | 0.00 | 0.00 | 0.00 | 65 | 1007.6 |
| 20260902012143 | 68 | 149 | 3.0 | 10.0 | 0.00 | 0.00 | 0.00 | 65 | 1007.5 |
| 20260902011143 | 68 | 149 | 3.0 | 13.0 | 0.00 | 0.00 | 0.00 | 65 | 1007.4 |
| 20260902010122 | 68 | 145 | 1.0 | 8.0 | 0.00 | 0.00 | 0.00 | 65 | 1007.4 |
| 20260902005145 | 68 | 187 | 2.0 | 10.0 | 0.00 | 0.00 | 0.00 | 65 | 1007.3 |
| 20260902004122 | 68 | 147 | 5.0 | 18.0 | 0.00 | 0.00 | 0.00 | 64 | 1007.3 |
| 20260902003122 | 68 | 174 | 1.0 | 6.0 | 0.00 | 0.00 | 0.00 | 64 | 1007.3 |
| 20260902002124 | 68 | 226 | 3.0 | 13.0 | 0.00 | 0.00 | 0.00 | 63 | 1007.4 |
| 20260902001122 | 68 | 211 | 1.0 | 6.0 | 0.00 | 0.00 | 0.00 | 63 | 1007.4 |
| 20260902000122 | 69 | 243 | 4.0 | 18.0 | 0.00 | 0.00 | 0.00 | 63 | 1007.3 |
| 20260901235122 | 68 | 226 | 2.0 | 10.0 | 0.00 | 0.00 | 0.00 | 65 | 1007.2 |
| 20260901234145 | 68 | 180 | 1.0 | 11.0 | 0.00 | 0.00 | 0.00 | 66 | 1007.3 |
| 20260901233122 | 68 | 215 | 3.0 | 13.0 | 0.00 | 0.00 | 0.00 | 66 | 1007.2 |
| 20260901232124 | 68 | 224 | 4.0 | 13.0 | 0.00 | 0.00 | 0.00 | 66 | 1007.3 |
| 20260901231122 | 69 | 221 | 2.0 | 13.0 | 0.00 | 0.00 | 0.00 | 68 | 1007.2 |
| 20260901230124 | 69 | 234 | 4.0 | 13.0 | 0.00 | 0.00 | 0.00 | 69 | 1007.2 |
| 20260901225143 | 69 | 224 | 3.0 | 13.0 | 0.00 | 0.00 | 0.00 | 68 | 1007.1 |
| 20260901224123 | 69 | 231 | 3.0 | 13.0 | 0.00 | 0.00 | 0.00 | 69 | 1007.1 |
| 20260901223124 | 69 | 218 | 2.0 | 13.0 | 0.00 | 0.00 | 0.00 | 69 | 1007.1 |
| 20260901222122 | 69 | 228 | 3.0 | 11.0 | 0.00 | 0.00 | 0.00 | 69 | 1007.2 |
| 20260901221122 | 69 | 216 | 3.0 | 14.0 | 0.00 | 0.00 | 0.00 | 68 | 1007.3 |
| 20260901220123 | 69 | 225 | 6.0 | 19.0 | 0.00 | 0.00 | 0.00 | 67 | 1007.4 |
| 20260901215122 | 71 | 267 | 4.0 | 14.0 | 0.00 | 0.00 | 0.00 | 64 | 1007.4 |
| 20260901214143 | 71 | 242 | 4.0 | 14.0 | 0.00 | 0.00 | 0.00 | 61 | 1007.5 |
| 20260901213122 | 71 | 239 | 6.0 | 19.0 | 0.00 | 0.00 | 0.00 | 59 | 1007.5 |
| 20260901212122 | 72 | 247 | 6.0 | 18.0 | 0.00 | 0.00 | 0.00 | 60 | 1007.5 |
| 20260901211122 | 72 | 248 | 3.0 | 16.0 | 0.00 | 0.00 | 0.00 | 57 | 1007.4 |
| 20260901210122 | 73 | 214 | 2.0 | 16.0 | 0.00 | 0.00 | 0.00 | 58 | 1007.3 |
| 20260901205122 | 73 | 170 | 4.0 | 14.0 | 0.00 | 0.00 | 0.00 | 58 | 1007.5 |
| 20260901204122 | 72 | 237 | 1.0 | 6.0 | 0.00 | 0.00 | 0.00 | 59 | 1007.3 |
| 20260901203122 | 72 | 259 | 3.0 | 16.0 | 0.00 | 0.00 | 0.00 | 59 | 1007.4 |
| 20260901202122 | 72 | 254 | 2.0 | 11.0 | 0.00 | 0.00 | 0.00 | 59 | 1007.3 |
| 20260901201122 | 72 | 250 | 2.0 | 10.0 | 0.00 | 0.00 | 0.00 | 58 | 1007.4 |
| 20260901200122 | 72 | 208 | 3.0 | 11.0 | 0.00 | 0.00 | 0.00 | 59 | 1007.5 |
| 20260901195127 | 72 | 237 | 2.0 | 8.0 | 0.00 | 0.00 | 0.00 | 60 | 1007.6 |
| 20260901195122 | 72 | 239 | 2.0 | 8.0 | 0.00 | 0.00 | 0.00 | 60 | 1007.6 |
| 20260901194124 | 72 | 212 | 2.0 | 8.0 | 0.00 | 0.00 | 0.00 | 62 | 1007.6 |
| 20260901193124 | 71 | 227 | 1.0 | 8.0 | 0.00 | 0.00 | 0.00 | 63 | 1007.7 |
| 20260901192124 | 71 | 149 | 4.0 | 16.0 | 0.00 | 0.00 | 0.00 | 63 | 1007.7 |
| 20260901191122 | 71 | 144 | 5.0 | 13.0 | 0.00 | 0.00 | 0.00 | 63 | 1007.8 |
| 20260901190122 | 71 | 168 | 3.0 | 13.0 | 0.00 | 0.00 | 0.00 | 63 | 1007.9 |
| 20260901185143 | 71 | 204 | 2.0 | 13.0 | 0.00 | 0.00 | 0.00 | 64 | 1007.9 |